Time;durP1;ratioP1;P1;durP2;ratioP2;P2;SDS_P1;SDS_P2;PMS_P1;PMS_P2;Temp;Humidity;BMP_temperature;BMP_pressure;BME280_temperature;BME280_humidity;BME280_pressure;Samples;Min_cycle;Max_cycle;Signal;HPM_P1;HPM_P2
2022/04/21 00:00:16;;;;;;;;;11.50;10.50;;;;;-146.03;100.00;60875.16;6272524;22;45334;-86
2022/04/21 00:02:42;;;;;;;;;10.50;10.50;;;;;-146.03;100.00;60875.16;6272398;22;45429;-86
2022/04/21 00:05:09;;;;;;;;;9.00;9.00;;;;;-146.03;100.00;60875.16;6271574;22;47073;-87
2022/04/21 00:07:34;;;;;;;;;8.50;8.50;;;;;-146.03;100.00;60875.16;6244547;22;45412;-86
2022/04/21 00:09:59;;;;;;;;;10.50;10.50;;;;;-146.03;100.00;60875.16;6272093;22;45215;-86
2022/04/21 00:12:25;;;;;;;;;10.75;10.25;;;;;-146.03;100.00;60875.16;6272409;22;45354;-86
2022/04/21 00:14:50;;;;;;;;;11.25;10.00;;;;;-146.03;100.00;60875.16;6244476;22;47344;-86
2022/04/21 00:17:16;;;;;;;;;10.25;10.25;;;;;-146.03;100.00;60875.16;6272240;22;45261;-86
2022/04/21 00:19:41;;;;;;;;;11.00;11.00;;;;;-146.03;100.00;60875.16;6272544;22;45246;-86
2022/04/21 00:24:50;;;;;;;;;10.25;10.25;;;;;-146.03;100.00;60875.16;6271944;22;45831;-86
2022/04/21 00:27:16;;;;;;;;;10.25;10.25;;;;;-146.03;100.00;60875.16;6272201;22;45393;-86
2022/04/21 00:29:43;;;;;;;;;10.00;10.00;;;;;-146.03;100.00;60875.16;6272845;22;45196;-87
2022/04/21 00:32:09;;;;;;;;;11.00;11.00;;;;;-146.03;100.00;60875.16;6244955;22;45416;-87
2022/04/21 00:34:34;;;;;;;;;9.25;9.25;;;;;-146.03;100.00;60875.16;6272719;22;45951;-85
2022/04/21 00:37:00;;;;;;;;;12.50;10.50;;;;;-146.03;100.00;60875.16;6272664;22;45295;-86
2022/04/21 00:39:26;;;;;;;;;12.00;10.75;;;;;-146.03;100.00;60875.16;6272284;22;45223;-87
2022/04/21 00:41:56;;;;;;;;;10.00;10.00;;;;;-146.03;100.00;60875.16;6272869;22;45575;-87
2022/04/21 00:44:21;;;;;;;;;14.00;12.25;;;;;-146.03;100.00;60875.16;6244839;22;46167;-84
2022/04/21 00:46:47;;;;;;;;;10.00;10.00;;;;;-146.03;100.00;60875.16;6272564;22;45223;-85
2022/04/21 00:49:13;;;;;;;;;13.75;12.00;;;;;-146.03;100.00;60875.16;6272993;22;45289;-85
2022/04/21 00:51:38;;;;;;;;;14.25;11.50;;;;;-146.03;100.00;60875.16;6272634;22;45386;-85
2022/04/21 00:54:04;;;;;;;;;12.50;11.25;;;;;-146.03;100.00;60875.16;6272250;22;46170;-85
2022/04/21 00:56:29;;;;;;;;;13.50;12.75;;;;;-146.03;100.00;60875.16;6273213;22;48210;-85
2022/04/21 00:58:55;;;;;;;;;12.75;12.75;;;;;-146.03;100.00;60875.16;6273749;22;45360;-84
2022/04/21 01:04:22;;;;;;;;;10.25;10.25;;;;;-146.03;100.00;60875.16;6148774;23;45215;-85
2022/04/21 01:06:47;;;;;;;;;11.50;10.75;;;;;-146.03;100.00;60875.16;6148491;23;45375;-86
2022/04/21 01:09:13;;;;;;;;;12.75;12.00;;;;;-146.03;100.00;60875.16;6149228;23;45325;-85
2022/04/21 01:11:38;;;;;;;;;12.75;10.50;;;;;-146.03;100.00;60875.16;6148721;23;45377;-85
2022/04/21 01:14:04;;;;;;;;;10.25;10.00;;;;;-146.03;100.00;60875.16;6148907;23;45378;-85
2022/04/21 01:16:30;;;;;;;;;13.50;12.00;;;;;-146.03;100.00;60875.16;6149164;23;45439;-85
2022/04/21 01:18:56;;;;;;;;;11.50;10.75;;;;;-146.03;100.00;60875.16;6150853;23;45287;-85
2022/04/21 01:21:21;;;;;;;;;12.50;11.75;;;;;-146.03;100.00;60875.16;6149669;23;45419;-85
2022/04/21 01:23:47;;;;;;;;;12.25;11.00;;;;;-146.03;100.00;60875.16;6149556;23;45379;-85
2022/04/21 01:26:16;;;;;;;;;12.50;9.75;;;;;-146.03;100.00;60875.16;6147823;23;45376;-85
2022/04/21 01:28:42;;;;;;;;;8.75;8.75;;;;;-146.03;100.00;60875.16;6147808;23;45340;-85
2022/04/21 01:31:07;;;;;;;;;10.50;9.50;;;;;-146.03;100.00;60875.16;6148267;23;45415;-86
2022/04/21 01:33:32;;;;;;;;;9.00;9.00;;;;;-146.03;100.00;60875.16;6147967;23;46243;-86
2022/04/21 01:35:58;;;;;;;;;11.00;9.25;;;;;-146.03;100.00;60875.16;6148277;23;45284;-86
2022/04/21 01:41:10;;;;;;;;;9.75;9.75;;;;;-146.03;100.00;60875.16;6273511;22;45426;-86
2022/04/21 01:43:36;;;;;;;;;5.00;5.00;;;;;-146.03;100.00;60875.16;6272697;22;45549;-86
2022/04/21 01:46:02;;;;;;;;;8.25;7.00;;;;;-146.03;100.00;60875.16;6273173;22;45311;-85
2022/04/21 01:48:28;;;;;;;;;8.25;8.25;;;;;-146.03;100.00;60875.16;6272445;22;45270;-86
2022/04/21 01:50:53;;;;;;;;;10.00;9.25;;;;;-146.03;100.00;60875.16;6272557;22;45672;-85
2022/04/21 01:53:19;;;;;;;;;7.75;7.75;;;;;-146.03;100.00;60875.16;6244137;22;48075;-86
2022/04/21 01:55:44;;;;;;;;;8.75;8.00;;;;;-146.03;100.00;60875.16;6245108;22;45640;-85
2022/04/21 01:58:09;;;;;;;;;8.00;8.00;;;;;-146.03;100.00;60875.16;6273571;22;45183;-86
2022/04/21 02:00:35;;;;;;;;;10.00;10.00;;;;;-146.03;100.00;60875.16;6273878;22;45286;-85
2022/04/21 02:03:00;;;;;;;;;9.75;9.00;;;;;-146.03;100.00;60875.16;6273419;22;45351;-86
2022/04/21 02:05:26;;;;;;;;;9.00;9.00;;;;;-146.03;100.00;60875.16;6273047;22;45183;-86
2022/04/21 02:07:52;;;;;;;;;7.75;6.75;;;;;-146.03;100.00;60875.16;6273803;22;45140;-86
2022/04/21 02:10:19;;;;;;;;;8.50;8.50;;;;;-146.03;100.00;60875.16;6273728;22;45159;-86
2022/04/21 02:12:45;;;;;;;;;10.25;9.75;;;;;-146.03;100.00;60875.16;6245952;22;47737;-86
2022/04/21 02:15:11;;;;;;;;;8.25;8.25;;;;;-146.03;100.00;60875.16;6273532;22;45659;-86
2022/04/21 02:17:37;;;;;;;;;10.00;8.50;;;;;-146.03;100.00;60875.16;6273545;22;45335;-86
2022/04/21 02:20:05;;;;;;;;;9.50;8.50;;;;;-146.03;100.00;60875.16;6273275;22;45325;-86
2022/04/21 02:22:32;;;;;;;;;8.50;8.00;;;;;-146.03;100.00;60875.16;6273678;22;45270;-86
2022/04/21 02:24:57;;;;;;;;;8.25;8.25;;;;;-146.03;100.00;60875.16;6273697;22;45239;-86
2022/04/21 02:27:23;;;;;;;;;9.00;9.00;;;;;-146.03;100.00;60875.16;6246162;22;45297;-86
2022/04/21 02:29:48;;;;;;;;;7.75;7.00;;;;;-146.03;100.00;60875.16;6273904;22;45396;-86
2022/04/21 02:32:14;;;;;;;;;8.00;8.00;;;;;-146.03;100.00;60875.16;6273080;22;51775;-86
2022/04/21 02:34:41;;;;;;;;;9.75;9.75;;;;;-146.03;100.00;60875.16;6273223;22;45346;-86
2022/04/21 02:37:07;;;;;;;;;9.00;8.75;;;;;-146.03;100.00;60875.16;6273336;22;45271;-86
2022/04/21 02:39:32;;;;;;;;;6.75;6.25;;;;;-146.03;100.00;60875.16;6273526;22;45282;-86
2022/04/21 02:41:57;;;;;;;;;8.50;8.50;;;;;-146.03;100.00;60875.16;6273476;22;45921;-86
2022/04/21 02:44:23;;;;;;;;;8.00;8.00;;;;;-146.03;100.00;60875.16;6273391;22;45376;-86
2022/04/21 02:46:49;;;;;;;;;9.50;7.00;;;;;-146.03;100.00;60875.16;6273221;22;45274;-86
2022/04/21 02:49:15;;;;;;;;;9.25;8.75;;;;;-146.03;100.00;60875.16;6273423;22;45263;-86
2022/04/21 02:51:41;;;;;;;;;10.50;10.00;;;;;-146.03;100.00;60875.16;6272675;22;46059;-86
2022/04/21 02:59:35;;;;;;;;;8.00;8.00;;;;;-146.03;100.00;60875.16;6273568;22;45313;-86
2022/04/21 03:02:00;;;;;;;;;8.75;8.50;;;;;-146.03;100.00;60875.16;6273251;22;45332;-86
2022/04/21 03:04:26;;;;;;;;;11.00;9.00;;;;;-146.03;100.00;60875.16;6272965;22;45238;-86
2022/04/21 03:06:51;;;;;;;;;7.75;7.75;;;;;-146.03;100.00;60875.16;6273280;22;45442;-86
2022/04/21 03:09:16;;;;;;;;;8.50;8.50;;;;;-146.03;100.00;60875.16;6273465;22;45225;-86
2022/04/21 03:11:42;;;;;;;;;10.75;8.75;;;;;-146.03;100.00;60875.16;6272803;22;45246;-86
2022/04/21 03:14:07;;;;;;;;;8.00;8.00;;;;;-146.03;100.00;60875.16;6273043;22;46517;-86
2022/04/21 03:16:32;;;;;;;;;9.00;7.50;;;;;-146.03;100.00;60875.16;6273403;22;45231;-86
2022/04/21 03:18:58;;;;;;;;;9.00;9.00;;;;;-146.03;100.00;60875.16;6273806;22;45321;-86
2022/04/21 03:24:19;;;;;;;;;8.25;8.25;;;;;-146.03;100.00;60875.16;6274400;22;45338;-85
2022/04/21 03:26:45;;;;;;;;;11.25;9.50;;;;;-146.03;100.00;60875.16;6274575;22;45453;-85
2022/04/21 03:29:10;;;;;;;;;10.00;9.50;;;;;-146.03;100.00;60875.16;6274137;22;45408;-85
2022/04/21 03:31:36;;;;;;;;;10.00;10.00;;;;;-146.03;100.00;60875.16;6274129;22;47316;-85
2022/04/21 03:34:04;;;;;;;;;9.50;9.50;;;;;-146.03;100.00;60875.16;6273968;22;45427;-85
2022/04/21 03:36:31;;;;;;;;;9.00;9.00;;;;;-146.03;100.00;60875.16;6274270;22;45407;-85
2022/04/21 03:38:56;;;;;;;;;10.00;9.00;;;;;-146.03;100.00;60875.16;6274431;22;45388;-85
2022/04/21 03:41:21;;;;;;;;;9.75;9.75;;;;;-146.03;100.00;60875.16;6274308;22;46375;-85
2022/04/21 03:43:47;;;;;;;;;12.50;10.25;;;;;-146.03;100.00;60875.16;6273867;22;55014;-85
2022/04/21 03:46:12;;;;;;;;;11.00;10.00;;;;;-146.03;100.00;60875.16;6273976;22;45188;-85
2022/04/21 03:48:38;;;;;;;;;11.25;9.25;;;;;-146.03;100.00;60875.16;6273742;22;45225;-85
2022/04/21 03:51:03;;;;;;;;;10.50;10.50;;;;;-146.03;100.00;60875.16;6273939;22;45407;-85
2022/04/21 03:53:29;;;;;;;;;9.25;8.00;;;;;-146.03;100.00;60875.16;6274200;22;45165;-86
2022/04/21 03:55:55;;;;;;;;;15.00;14.50;;;;;-146.03;100.00;60875.16;6274328;22;45396;-85
2022/04/21 03:58:20;;;;;;;;;10.00;10.00;;;;;-146.03;100.00;60875.16;6274391;22;45370;-85
2022/04/21 04:00:45;;;;;;;;;10.25;10.25;;;;;-146.03;100.00;60875.16;6274055;22;45337;-86
2022/04/21 04:03:11;;;;;;;;;10.75;9.50;;;;;-146.03;100.00;60875.16;6273725;22;45365;-85
2022/04/21 04:05:36;;;;;;;;;14.75;10.50;;;;;-146.03;100.00;60875.16;6274219;22;45352;-86
2022/04/21 04:10:52;;;;;;;;;10.75;9.75;;;;;-146.03;100.00;60875.16;6274250;22;45426;-85
2022/04/21 04:13:21;;;;;;;;;11.50;10.25;;;;;-146.03;100.00;60875.16;6246544;22;45255;-85
2022/04/21 04:15:48;;;;;;;;;9.75;9.00;;;;;-146.03;100.00;60875.16;6274249;22;45378;-85
2022/04/21 04:18:20;;;;;;;;;10.00;10.00;;;;;-146.03;100.00;60875.16;6246604;22;45187;-85
2022/04/21 04:20:46;;;;;;;;;10.50;10.25;;;;;-146.03;100.00;60875.16;6274210;22;45360;-85
2022/04/21 04:23:17;;;;;;;;;11.25;10.50;;;;;-146.03;100.00;60875.16;6274330;22;45372;-86
2022/04/21 04:25:42;;;;;;;;;11.75;11.50;;;;;-146.03;100.00;60875.16;6273927;22;45243;-85
2022/04/21 04:28:08;;;;;;;;;10.00;8.00;;;;;-146.03;100.00;60875.16;6273191;22;45259;-85
2022/04/21 04:30:33;;;;;;;;;13.75;10.75;;;;;-146.03;100.00;60875.16;6273395;22;45524;-85
2022/04/21 04:32:59;;;;;;;;;12.25;12.25;;;;;-146.03;100.00;60875.16;6274177;22;45779;-86
2022/04/21 04:35:25;;;;;;;;;9.00;9.00;;;;;-146.03;100.00;60875.16;6274321;22;45207;-86
2022/04/21 04:37:55;;;;;;;;;13.75;10.00;;;;;-146.03;100.00;60875.16;6274133;22;45357;-86
2022/04/21 04:40:21;;;;;;;;;11.00;11.00;;;;;-146.03;100.00;60875.16;6273580;22;45313;-85
2022/04/21 04:42:46;;;;;;;;;10.25;9.25;;;;;-146.03;100.00;60875.16;6274036;22;45242;-85
2022/04/21 04:47:55;;;;;;;;;11.75;10.50;;;;;-146.03;100.00;60875.16;6273895;22;45288;-85
2022/04/21 04:50:21;;;;;;;;;10.75;10.75;;;;;-146.03;100.00;60875.16;6273779;22;45222;-85
2022/04/21 04:52:49;;;;;;;;;14.75;11.00;;;;;-146.03;100.00;60875.16;6274079;22;45208;-85
2022/04/21 04:55:15;;;;;;;;;13.00;10.50;;;;;-146.03;100.00;60875.16;6274151;22;45482;-85
2022/04/21 04:57:40;;;;;;;;;9.75;9.00;;;;;-146.03;100.00;60875.16;6273837;22;46033;-85
2022/04/21 05:00:09;;;;;;;;;9.00;9.00;;;;;-146.03;100.00;60875.16;6273049;22;46578;-85
2022/04/21 05:02:35;;;;;;;;;13.00;12.00;;;;;-146.03;100.00;60875.16;6273255;22;45377;-85
2022/04/21 05:05:00;;;;;;;;;10.25;9.00;;;;;-146.03;100.00;60875.16;6274052;22;45104;-85
2022/04/21 05:07:26;;;;;;;;;11.00;11.00;;;;;-146.03;100.00;60875.16;6273925;22;45270;-85
2022/04/21 05:09:52;;;;;;;;;11.25;11.25;;;;;-146.03;100.00;60875.16;6273560;22;46021;-85
2022/04/21 05:12:18;;;;;;;;;12.00;11.00;;;;;-146.03;100.00;60875.16;6273619;22;45251;-85
2022/04/21 05:14:44;;;;;;;;;11.25;10.75;;;;;-146.03;100.00;60875.16;6273147;22;45290;-85
2022/04/21 05:17:09;;;;;;;;;11.00;11.00;;;;;-146.03;100.00;60875.16;6246065;22;45279;-85
2022/04/21 05:19:35;;;;;;;;;12.00;12.00;;;;;-146.03;100.00;60875.16;6272573;22;46670;-86
2022/04/21 05:22:05;;;;;;;;;10.00;10.00;;;;;-146.03;100.00;60875.16;6273258;22;45395;-85
2022/04/21 05:24:32;;;;;;;;;11.00;10.25;;;;;-146.03;100.00;60875.16;6273957;22;45420;-85
2022/04/21 05:26:57;;;;;;;;;17.50;15.50;;;;;-146.03;100.00;60875.16;6273755;22;45219;-86
2022/04/21 05:32:08;;;;;;;;;10.50;10.00;;;;;-146.03;100.00;60875.16;6273525;22;45349;-85
2022/04/21 05:34:34;;;;;;;;;12.50;12.50;;;;;-146.03;100.00;60875.16;6273444;22;45329;-85
2022/04/21 05:37:00;;;;;;;;;11.75;11.75;;;;;-146.03;100.00;60875.16;6274014;22;45307;-85
2022/04/21 05:39:27;;;;;;;;;14.00;13.50;;;;;-146.03;100.00;60875.16;6273244;22;45428;-85
2022/04/21 05:41:53;;;;;;;;;11.50;11.25;;;;;-146.03;100.00;60875.16;6273025;22;45328;-85
2022/04/21 05:44:20;;;;;;;;;11.25;11.25;;;;;-146.03;100.00;60875.16;6272882;22;45362;-85
2022/04/21 05:46:45;;;;;;;;;10.75;10.50;;;;;-146.03;100.00;60875.16;6273010;22;45425;-85
2022/04/21 05:49:11;;;;;;;;;13.75;12.00;;;;;-146.03;100.00;60875.16;6273401;22;46389;-84
2022/04/21 05:51:37;;;;;;;;;14.00;11.75;;;;;-146.03;100.00;60875.16;6273322;22;45286;-84
2022/04/21 05:54:07;;;;;;;;;12.00;10.75;;;;;-146.03;100.00;60875.16;6273420;22;45207;-84
2022/04/21 05:56:33;;;;;;;;;13.50;11.00;;;;;-146.03;100.00;60875.16;6273629;22;45286;-84
2022/04/21 05:58:59;;;;;;;;;12.00;11.00;;;;;-146.03;100.00;60875.16;6272842;22;45411;-85
2022/04/21 06:01:25;;;;;;;;;10.00;10.00;;;;;-146.03;100.00;60875.16;6273015;22;45334;-84
2022/04/21 06:03:52;;;;;;;;;13.75;11.25;;;;;-146.03;100.00;60875.16;6271827;22;45186;-84
2022/04/21 06:06:18;;;;;;;;;13.50;11.75;;;;;-146.03;100.00;60875.16;6241714;22;45427;-84
2022/04/21 06:08:43;;;;;;;;;12.00;12.00;;;;;-146.03;100.00;60875.16;6271955;22;45303;-85
2022/04/21 06:11:08;;;;;;;;;14.00;13.75;;;;;-146.03;100.00;60875.16;6273441;22;45269;-84
2022/04/21 06:13:34;;;;;;;;;10.50;10.50;;;;;-146.03;100.00;60875.16;6244531;22;45412;-85
2022/04/21 06:15:59;;;;;;;;;15.75;14.50;;;;;-146.03;100.00;60875.16;6244791;22;45313;-84
2022/04/21 06:18:26;;;;;;;;;14.75;12.25;;;;;-146.03;100.00;60875.16;6272327;22;45346;-84
2022/04/21 06:20:53;;;;;;;;;12.00;11.00;;;;;-146.03;100.00;60875.16;6272520;22;45519;-84
2022/04/21 06:23:19;;;;;;;;;11.00;10.00;;;;;-146.03;100.00;60875.16;6272889;22;45293;-84
2022/04/21 06:25:44;;;;;;;;;11.25;9.00;;;;;-146.03;100.00;60875.16;6244511;22;45311;-84
2022/04/21 06:28:11;;;;;;;;;11.00;11.00;;;;;-146.03;100.00;60875.16;6271951;22;45484;-84
2022/04/21 06:30:36;;;;;;;;;12.00;12.00;;;;;-146.03;100.00;60875.16;6272796;22;45255;-85
2022/04/21 06:33:02;;;;;;;;;12.50;12.00;;;;;-146.03;100.00;60875.16;6273058;22;45274;-85
2022/04/21 06:35:28;;;;;;;;;14.00;12.50;;;;;-146.03;100.00;60875.16;6271699;22;45254;-84
2022/04/21 06:37:54;;;;;;;;;13.50;13.50;;;;;-146.03;100.00;60875.16;6272956;22;45242;-85
2022/04/21 06:40:20;;;;;;;;;9.25;7.50;;;;;-146.03;100.00;60875.16;6244990;22;45335;-85
2022/04/21 06:42:46;;;;;;;;;7.25;7.25;;;;;-146.03;100.00;60875.16;6272296;22;45437;-84
2022/04/21 06:48:02;;;;;;;;;14.75;13.00;;;;;-146.03;100.00;60875.16;6272716;22;45345;-85
2022/04/21 06:50:29;;;;;;;;;11.00;10.50;;;;;-146.03;100.00;60875.16;6272852;22;45214;-85
2022/04/21 06:52:54;;;;;;;;;17.25;13.50;;;;;-146.03;100.00;60875.16;6272090;22;45381;-87
2022/04/21 06:55:19;;;;;;;;;11.75;10.50;;;;;-146.03;100.00;60875.16;6244241;22;52612;-87
2022/04/21 06:57:45;;;;;;;;;10.00;9.25;;;;;-146.03;100.00;60875.16;6272449;22;46011;-87
2022/04/21 07:00:10;;;;;;;;;12.75;12.75;;;;;-146.03;100.00;60875.16;6271531;22;45444;-87
2022/04/21 07:02:41;;;;;;;;;12.25;11.00;;;;;-146.03;100.00;60875.16;6270066;22;45694;-87
2022/04/21 07:05:09;;;;;;;;;16.50;13.00;;;;;-146.03;100.00;60875.16;6271530;22;45239;-87
2022/04/21 07:07:35;;;;;;;;;9.75;9.75;;;;;-146.03;100.00;60875.16;6270440;22;46072;-87
2022/04/21 07:10:02;;;;;;;;;13.00;12.00;;;;;-146.03;100.00;60875.16;6243856;22;45610;-87
2022/04/21 07:12:29;;;;;;;;;11.75;10.75;;;;;-146.03;100.00;60875.16;6274086;22;45337;-84
2022/04/21 07:14:59;;;;;;;;;12.75;10.25;;;;;-146.03;100.00;60875.16;6271817;22;45343;-84
2022/04/21 07:17:25;;;;;;;;;13.75;12.00;;;;;-146.03;100.00;60875.16;6270294;22;45838;-85
2022/04/21 07:19:50;;;;;;;;;13.25;13.25;;;;;-146.03;100.00;60875.16;6272597;22;45360;-85
2022/04/21 07:22:18;;;;;;;;;13.00;12.75;;;;;-146.03;100.00;60875.16;6271337;22;45381;-85
2022/04/21 07:24:43;;;;;;;;;9.75;9.75;;;;;-146.03;100.00;60875.16;6270633;22;45678;-85
2022/04/21 07:27:08;;;;;;;;;9.00;9.00;;;;;-146.03;100.00;60875.16;6243680;22;47101;-85
2022/04/21 07:29:34;;;;;;;;;13.00;13.00;;;;;-146.03;100.00;60875.16;6272047;22;45419;-86
2022/04/21 07:32:00;;;;;;;;;16.00;12.75;;;;;-146.03;100.00;60875.16;6272612;22;45455;-86
2022/04/21 07:34:25;;;;;;;;;11.25;11.25;;;;;-146.03;100.00;60875.16;6272539;22;45395;-86
2022/04/21 07:36:51;;;;;;;;;13.00;11.25;;;;;-146.03;100.00;60875.16;6271717;22;46137;-86
2022/04/21 07:39:18;;;;;;;;;10.00;10.00;;;;;-146.03;100.00;60875.16;6271608;22;45281;-86
2022/04/21 07:41:43;;;;;;;;;12.00;12.00;;;;;-146.03;100.00;60875.16;6244684;22;45266;-85
2022/04/21 07:44:09;;;;;;;;;13.75;11.75;;;;;-146.03;100.00;60875.16;6272303;22;45210;-84
2022/04/21 07:46:35;;;;;;;;;12.50;11.50;;;;;-146.03;100.00;60875.16;6271407;22;49582;-84
2022/04/21 07:51:44;;;;;;;;;11.75;11.75;;;;;-146.03;100.00;60875.16;6274784;22;45286;-87
2022/04/21 07:54:09;;;;;;;;;12.50;12.50;;;;;-146.03;100.00;60875.16;6271460;22;48686;-87
2022/04/21 07:56:36;;;;;;;;;13.50;10.75;;;;;-146.03;100.00;60875.16;6243632;22;50846;-87
2022/04/21 07:59:02;;;;;;;;;10.25;8.25;;;;;-146.03;100.00;60875.16;6243525;22;45423;-87
2022/04/21 08:01:27;;;;;;;;;11.00;11.00;;;;;-146.03;100.00;60875.16;6271006;22;45279;-87
2022/04/21 08:03:52;;;;;;;;;11.50;11.50;;;;;-146.03;100.00;60875.16;6272456;22;45388;-87
2022/04/21 08:06:17;;;;;;;;;12.50;12.50;;;;;-146.03;100.00;60875.16;6272196;22;45278;-86
2022/04/21 08:08:43;;;;;;;;;12.25;11.50;;;;;-146.03;100.00;60875.16;6244262;22;45439;-87
2022/04/21 08:11:09;;;;;;;;;11.50;10.25;;;;;-146.03;100.00;60875.16;6273554;22;45440;-86
2022/04/21 08:13:34;;;;;;;;;11.00;11.00;;;;;-146.03;100.00;60875.16;6273767;22;45417;-87
2022/04/21 08:15:59;;;;;;;;;12.50;11.00;;;;;-146.03;100.00;60875.16;6272751;22;45453;-86
2022/04/21 08:18:25;;;;;;;;;12.50;11.75;;;;;-146.03;100.00;60875.16;6273385;22;45456;-87
2022/04/21 08:20:53;;;;;;;;;13.25;11.00;;;;;-146.03;100.00;60875.16;6273756;22;45417;-85
2022/04/21 08:23:19;;;;;;;;;10.50;10.00;;;;;-146.03;100.00;60875.16;6272394;22;45425;-87
2022/04/21 08:33:57;;;;;;;;;13.50;11.00;;;;;-146.03;100.00;60875.16;6272909;22;45246;-87
2022/04/21 08:36:23;;;;;;;;;14.75;11.75;;;;;-146.03;100.00;60875.16;6244750;22;47560;-87
2022/04/21 08:38:48;;;;;;;;;15.75;13.75;;;;;-146.03;100.00;60875.16;6272898;22;45248;-87
2022/04/21 08:41:17;;;;;;;;;13.25;12.00;;;;;-146.03;100.00;60875.16;6273233;22;45609;-87
2022/04/21 08:43:46;;;;;;;;;14.50;13.00;;;;;-146.03;100.00;60875.16;6273251;22;45314;-87
2022/04/21 08:46:20;;;;;;;;;14.25;12.75;;;;;-146.03;100.00;60875.16;6272717;22;45258;-88
2022/04/21 08:48:50;;;;;;;;;12.75;12.75;;;;;-146.03;100.00;60875.16;6272626;22;45587;-87
2022/04/21 08:51:15;;;;;;;;;14.25;14.25;;;;;-146.03;100.00;60875.16;6273715;22;45289;-87
2022/04/21 08:53:41;;;;;;;;;13.75;12.00;;;;;-146.03;100.00;60875.16;6272788;22;45323;-87
2022/04/21 08:56:09;;;;;;;;;16.50;13.50;;;;;-146.03;100.00;60875.16;6273070;22;46104;-86
2022/04/21 08:58:34;;;;;;;;;12.75;12.00;;;;;-146.03;100.00;60875.16;6273498;22;45365;-87
2022/04/21 09:00:59;;;;;;;;;10.25;10.25;;;;;-146.03;100.00;60875.16;6273244;22;45340;-87
2022/04/21 09:03:26;;;;;;;;;11.00;10.75;;;;;-146.03;100.00;60875.16;6244907;22;57334;-88
2022/04/21 09:05:51;;;;;;;;;12.50;12.50;;;;;-146.03;100.00;60875.16;6272687;22;45250;-89
2022/04/21 09:08:19;;;;;;;;;15.50;13.75;;;;;-146.03;100.00;60875.16;6271983;22;45305;-89
2022/04/21 09:10:44;;;;;;;;;14.00;12.00;;;;;-146.03;100.00;60875.16;6273529;22;45435;-89
2022/04/21 09:13:10;;;;;;;;;14.25;14.00;;;;;-146.03;100.00;60875.16;6273564;22;45290;-89
2022/04/21 09:15:43;;;;;;;;;14.00;13.00;;;;;-146.03;100.00;60875.16;6272359;22;45358;-88
2022/04/21 09:18:11;;;;;;;;;13.25;13.00;;;;;-146.03;100.00;60875.16;6273142;22;45373;-88
2022/04/21 09:20:39;;;;;;;;;12.75;11.00;;;;;-146.03;100.00;60875.16;6273284;22;45622;-89
2022/04/21 09:23:06;;;;;;;;;11.00;11.00;;;;;-146.03;100.00;60875.16;6273428;22;45503;-89
2022/04/21 09:25:44;;;;;;;;;12.00;12.00;;;;;-146.03;100.00;60875.16;6272886;22;45242;-89
2022/04/21 09:28:24;;;;;;;;;13.50;11.25;;;;;-146.03;100.00;60875.16;6272968;22;45346;-89
2022/04/21 09:30:55;;;;;;;;;14.25;12.00;;;;;-146.03;100.00;60875.16;6273255;22;45422;-89
2022/04/21 09:33:27;;;;;;;;;12.00;12.00;;;;;-146.03;100.00;60875.16;6273548;22;45238;-88
2022/04/21 09:35:55;;;;;;;;;13.00;12.50;;;;;-146.03;100.00;60875.16;6272184;22;46148;-88
2022/04/21 09:38:21;;;;;;;;;13.00;12.00;;;;;-146.03;100.00;60875.16;6273182;22;45317;-88
2022/04/21 09:40:47;;;;;;;;;13.00;12.75;;;;;-146.03;100.00;60875.16;6272826;22;45601;-87
2022/04/21 09:43:12;;;;;;;;;13.75;12.25;;;;;-146.03;100.00;60875.16;6272620;22;45355;-88
2022/04/21 09:48:23;;;;;;;;;13.50;12.25;;;;;-146.03;100.00;60875.16;6273076;22;45313;-88
2022/04/21 09:50:56;;;;;;;;;12.75;12.75;;;;;-146.03;100.00;60875.16;6271325;22;45462;-85
2022/04/21 09:53:23;;;;;;;;;14.25;13.25;;;;;-146.03;100.00;60875.16;6273012;22;45363;-86
2022/04/21 09:55:50;;;;;;;;;14.00;11.50;;;;;-146.03;100.00;60875.16;6272188;22;46336;-86
2022/04/21 09:58:17;;;;;;;;;13.50;13.50;;;;;-146.03;100.00;60875.16;6273264;22;45458;-86
2022/04/21 10:00:43;;;;;;;;;14.75;14.75;;;;;-146.03;100.00;60875.16;6272941;22;45275;-86
2022/04/21 10:03:10;;;;;;;;;12.50;12.50;;;;;-146.03;100.00;60875.16;6272712;22;45244;-85
2022/04/21 10:05:37;;;;;;;;;14.25;13.50;;;;;-146.03;100.00;60875.16;6271601;22;47270;-85
2022/04/21 10:08:05;;;;;;;;;5.25;3.25;;;;;-146.03;100.00;60875.16;6271679;22;45596;-86
2022/04/21 10:10:31;;;;;;;;;10.25;10.25;;;;;-146.03;100.00;60875.16;6272057;22;45461;-86
2022/04/21 10:12:59;;;;;;;;;15.50;10.75;;;;;-146.03;100.00;60875.16;6245395;22;45267;-86
2022/04/21 10:15:26;;;;;;;;;9.00;9.00;;;;;-146.03;100.00;60875.16;6244750;22;47279;-86
2022/04/21 10:17:51;;;;;;;;;13.75;12.25;;;;;-146.03;100.00;60875.16;6273161;22;45325;-86
2022/04/21 10:20:17;;;;;;;;;12.75;11.25;;;;;-146.03;100.00;60875.16;6272584;22;45376;-86
2022/04/21 10:22:43;;;;;;;;;12.75;12.75;;;;;-146.03;100.00;60875.16;6272808;22;45342;-85
2022/04/21 10:25:09;;;;;;;;;14.50;11.00;;;;;-146.03;100.00;60875.16;6271129;22;45901;-86
2022/04/21 10:27:38;;;;;;;;;14.75;13.00;;;;;-146.03;100.00;60875.16;6272134;22;45388;-87
2022/04/21 10:30:20;;;;;;;;;12.75;11.00;;;;;-146.03;100.00;60875.16;6272624;22;45309;-86
2022/04/21 10:32:53;;;;;;;;;13.50;13.50;;;;;-146.03;100.00;60875.16;6273035;22;45290;-86
2022/04/21 10:35:24;;;;;;;;;10.50;10.25;;;;;-146.03;100.00;60875.16;6272352;22;46099;-86
2022/04/21 10:38:14;;;;;;;;;11.50;10.75;;;;;-146.03;100.00;60875.16;6273194;22;45242;-86
2022/04/21 10:41:00;;;;;;;;;11.50;10.00;;;;;-146.03;100.00;60875.16;6245026;22;45411;-86
2022/04/21 10:44:00;;;;;;;;;12.00;11.75;;;;;-146.03;100.00;60875.16;6273336;22;45343;-86
2022/04/21 10:46:31;;;;;;;;;14.75;13.75;;;;;-146.03;100.00;60875.16;6270377;22;47537;-85
2022/04/21 10:48:59;;;;;;;;;10.25;10.25;;;;;-146.03;100.00;60875.16;6272138;22;45250;-84
2022/04/21 10:57:16;;;;;;;;;13.00;11.50;;;;;-146.03;100.00;60875.16;6272903;22;45637;-83
2022/04/21 11:00:00;;;;;;;;;13.50;11.00;;;;;-146.03;100.00;60875.16;6272784;22;45238;-83
2022/04/21 11:02:42;;;;;;;;;11.25;10.50;;;;;-146.03;100.00;60875.16;6271279;22;45585;-84
2022/04/21 11:05:22;;;;;;;;;13.50;13.50;;;;;-146.03;100.00;60875.16;6272386;22;45363;-82
2022/04/21 11:07:56;;;;;;;;;13.00;12.00;;;;;-146.03;100.00;60875.16;6270686;22;45442;-83
2022/04/21 11:10:36;;;;;;;;;12.50;11.00;;;;;-146.03;100.00;60875.16;6271484;22;45431;-84
2022/04/21 11:13:02;;;;;;;;;10.75;9.25;;;;;-146.03;100.00;60875.16;6272523;22;45262;-83
2022/04/21 11:15:49;;;;;;;;;8.00;7.00;;;;;-146.03;100.00;60875.16;6272152;22;45320;-84
2022/04/21 11:18:18;;;;;;;;;10.75;9.75;;;;;-146.03;100.00;60875.16;6243433;22;47149;-84
2022/04/21 11:20:51;;;;;;;;;12.75;12.00;;;;;-146.03;100.00;60875.16;6272167;22;45361;-86
2022/04/21 11:23:29;;;;;;;;;14.00;13.25;;;;;-146.03;100.00;60875.16;6272272;22;45325;-84
2022/04/21 11:26:04;;;;;;;;;10.00;9.00;;;;;-146.03;100.00;60875.16;6272072;22;45416;-84
2022/04/21 11:28:30;;;;;;;;;10.75;10.75;;;;;-146.03;100.00;60875.16;6272318;22;46079;-84
2022/04/21 11:30:59;;;;;;;;;12.25;9.50;;;;;-146.03;100.00;60875.16;6271297;22;45758;-84
2022/04/21 11:33:25;;;;;;;;;11.75;9.75;;;;;-146.03;100.00;60875.16;6272874;22;45271;-84
2022/04/21 11:36:12;;;;;;;;;9.50;9.00;;;;;-146.03;100.00;60875.16;6244490;22;45346;-84
2022/04/21 11:38:45;;;;;;;;;11.00;10.00;;;;;-146.03;100.00;60875.16;6243767;22;47221;-83
2022/04/21 11:41:13;;;;;;;;;12.25;10.50;;;;;-146.03;100.00;60875.16;6273603;22;45219;-84
2022/04/21 11:43:50;;;;;;;;;11.00;10.25;;;;;-146.03;100.00;60875.16;6273851;22;45266;-83